createdAt,value
2023-05-25T00:00:11.968Z,16.50
2023-05-25T00:02:39.728Z,16.50
2023-05-25T00:05:09.120Z,16.50
2023-05-25T00:07:36.066Z,16.50
2023-05-25T00:10:03.250Z,16.50
2023-05-25T00:12:30.056Z,16.50
2023-05-25T00:14:56.919Z,16.50
2023-05-25T00:17:24.379Z,16.50
2023-05-25T00:19:51.546Z,16.50
2023-05-25T00:22:18.479Z,16.50
2023-05-25T00:24:45.300Z,16.50
2023-05-25T00:27:12.137Z,16.50
2023-05-25T00:29:39.019Z,16.50
2023-05-25T00:32:06.221Z,16.40
2023-05-25T00:34:33.081Z,16.40
2023-05-25T00:36:59.900Z,16.30
2023-05-25T00:39:26.674Z,16.30
2023-05-25T00:41:53.525Z,16.40
2023-05-25T00:44:22.078Z,16.30
2023-05-25T00:46:50.801Z,16.40
2023-05-25T00:49:18.580Z,16.50
2023-05-25T00:51:48.727Z,16.50
2023-05-25T00:54:16.113Z,16.50
2023-05-25T00:56:46.786Z,16.40
2023-05-25T00:59:17.502Z,16.40
2023-05-25T01:01:44.728Z,16.40
2023-05-25T01:04:13.376Z,16.30
2023-05-25T01:06:40.300Z,16.30
2023-05-25T01:09:07.445Z,16.30
2023-05-25T01:11:38.299Z,16.30
2023-05-25T01:14:05.134Z,16.20
2023-05-25T01:16:32.106Z,16.30
2023-05-25T01:18:59.010Z,16.40
2023-05-25T01:21:27.069Z,16.40
2023-05-25T01:23:59.013Z,16.40
2023-05-25T01:26:27.305Z,16.40
2023-05-25T01:28:54.189Z,16.30
2023-05-25T01:31:22.508Z,16.40
2023-05-25T01:33:51.649Z,16.40
2023-05-25T01:36:19.396Z,16.50
2023-05-25T01:38:46.190Z,16.50
2023-05-25T01:41:13.029Z,16.50
2023-05-25T01:43:39.823Z,16.40
2023-05-25T01:46:20.011Z,16.40
2023-05-25T01:48:58.414Z,16.30
2023-05-25T01:51:33.141Z,16.30
2023-05-25T01:54:03.368Z,16.20
2023-05-25T01:56:30.417Z,16.20
2023-05-25T01:58:57.265Z,16.20
2023-05-25T02:01:24.155Z,16.20
2023-05-25T02:03:51.334Z,16.20
2023-05-25T02:06:18.270Z,16.10
2023-05-25T02:08:45.893Z,16.10
2023-05-25T02:11:16.183Z,16.10
2023-05-25T02:13:43.050Z,16.00
2023-05-25T02:16:10.009Z,16.00
2023-05-25T02:18:37.257Z,15.90
2023-05-25T02:21:04.166Z,15.80
2023-05-25T02:23:31.254Z,15.80
2023-05-25T02:25:58.159Z,15.80
2023-05-25T02:28:25.115Z,15.80
2023-05-25T02:30:52.072Z,15.80
2023-05-25T02:33:19.064Z,15.80
2023-05-25T02:35:46.319Z,15.80
2023-05-25T02:38:13.775Z,15.80
2023-05-25T02:40:40.786Z,15.80
2023-05-25T02:43:07.737Z,15.80
2023-05-25T02:45:34.880Z,15.90
2023-05-25T02:48:01.786Z,16.00
2023-05-25T02:50:28.648Z,16.00
2023-05-25T02:52:55.525Z,16.10
2023-05-25T02:55:23.112Z,16.10
2023-05-25T02:57:49.969Z,16.20
2023-05-25T03:00:17.269Z,16.20
2023-05-25T03:02:46.970Z,16.20
2023-05-25T03:05:14.107Z,16.20
2023-05-25T03:07:42.112Z,16.20
2023-05-25T03:10:10.211Z,16.20
2023-05-25T03:12:38.366Z,16.20
2023-05-25T03:15:05.745Z,16.20
2023-05-25T03:17:32.631Z,16.20
2023-05-25T03:19:59.623Z,16.20
2023-05-25T03:22:27.219Z,16.20
2023-05-25T03:24:54.015Z,16.20
2023-05-25T03:27:20.862Z,16.30
2023-05-25T03:29:50.133Z,16.30
2023-05-25T03:32:17.206Z,16.30
2023-05-25T03:34:45.088Z,16.30
2023-05-25T03:37:11.908Z,16.30
2023-05-25T03:39:38.727Z,16.30
2023-05-25T03:42:06.479Z,16.30
2023-05-25T03:44:33.298Z,16.30
2023-05-25T03:47:00.070Z,16.40
2023-05-25T03:49:28.073Z,16.50
2023-05-25T03:51:54.990Z,16.60
2023-05-25T03:54:21.864Z,16.80
2023-05-25T03:56:48.700Z,17.10
2023-05-25T03:59:15.634Z,17.50
2023-05-25T04:01:42.477Z,17.90
2023-05-25T04:04:09.419Z,18.10
2023-05-25T04:06:37.318Z,18.50
2023-05-25T04:09:04.834Z,19.00
2023-05-25T04:11:31.756Z,19.20
2023-05-25T04:13:59.744Z,18.90
2023-05-25T04:16:26.658Z,18.70
2023-05-25T04:18:53.506Z,18.50
2023-05-25T04:21:20.433Z,18.30
2023-05-25T04:23:47.244Z,18.20
2023-05-25T04:26:15.720Z,18.20
2023-05-25T04:28:42.582Z,18.20
2023-05-25T04:31:09.562Z,18.30
2023-05-25T04:33:38.938Z,18.30
2023-05-25T04:36:06.408Z,18.20
2023-05-25T04:38:33.270Z,18.30
2023-05-25T04:41:03.142Z,19.10
2023-05-25T04:43:30.033Z,20.40
2023-05-25T04:45:57.979Z,21.50
2023-05-25T04:48:25.008Z,21.80
2023-05-25T04:50:53.070Z,21.20
2023-05-25T04:53:20.655Z,20.60
2023-05-25T04:55:47.536Z,20.20
2023-05-25T04:58:15.217Z,19.90
2023-05-25T05:00:42.262Z,19.70
2023-05-25T05:03:09.990Z,19.50
2023-05-25T05:05:37.131Z,19.40
2023-05-25T05:08:04.416Z,19.20
2023-05-25T05:10:31.251Z,19.20
2023-05-25T05:12:58.059Z,19.20
2023-05-25T05:15:24.858Z,19.20
2023-05-25T05:17:51.955Z,19.20
2023-05-25T05:20:18.954Z,19.20
2023-05-25T05:22:46.016Z,19.10
2023-05-25T05:25:12.886Z,19.00
2023-05-25T05:27:39.650Z,19.10
2023-05-25T05:30:07.604Z,19.10
2023-05-25T05:32:34.582Z,19.20
2023-05-25T05:35:01.498Z,19.30
2023-05-25T05:37:28.338Z,19.50
2023-05-25T05:39:55.226Z,19.50
2023-05-25T05:42:22.054Z,19.40
2023-05-25T05:44:48.888Z,19.40
2023-05-25T05:47:15.759Z,19.50
2023-05-25T05:49:42.619Z,19.80
2023-05-25T05:52:10.267Z,19.90
2023-05-25T05:54:37.155Z,20.10
2023-05-25T05:57:04.126Z,20.20
2023-05-25T05:59:30.939Z,20.40
2023-05-25T06:01:57.780Z,20.70
2023-05-25T06:04:28.574Z,21.00
2023-05-25T06:06:55.778Z,21.20
2023-05-25T06:09:22.701Z,21.30
2023-05-25T06:11:49.558Z,21.60
2023-05-25T06:14:16.395Z,21.70
2023-05-25T06:16:43.836Z,21.60
2023-05-25T06:19:11.028Z,21.60
2023-05-25T06:21:37.954Z,21.90
2023-05-25T06:24:05.440Z,22.30
2023-05-25T06:26:32.440Z,22.70
2023-05-25T06:28:59.267Z,23.10
2023-05-25T06:31:26.455Z,23.70
2023-05-25T06:33:53.317Z,24.80
2023-05-25T06:36:20.260Z,25.50
2023-05-25T06:38:47.266Z,26.60
2023-05-25T06:41:15.313Z,28.40
2023-05-25T06:43:45.329Z,28.70
2023-05-25T06:46:18.019Z,28.60
2023-05-25T06:48:46.212Z,28.10
2023-05-25T06:51:13.260Z,27.50
2023-05-25T06:53:40.148Z,27.10
2023-05-25T06:56:07.088Z,26.90
2023-05-25T06:58:33.947Z,26.60
2023-05-25T07:01:01.289Z,26.50
2023-05-25T07:03:28.204Z,27.20
2023-05-25T07:05:55.023Z,27.60
2023-05-25T07:08:21.798Z,27.60
2023-05-25T07:10:50.137Z,27.60
2023-05-25T07:13:17.397Z,27.80
2023-05-25T07:15:44.528Z,29.40
2023-05-25T07:18:12.677Z,31.50
2023-05-25T07:20:42.397Z,33.50
2023-05-25T07:23:10.336Z,35.30
2023-05-25T07:25:38.497Z,36.50
2023-05-25T07:28:05.939Z,37.30
2023-05-25T07:30:32.970Z,37.40
2023-05-25T07:33:00.265Z,37.50
2023-05-25T07:35:27.147Z,37.50
2023-05-25T07:37:58.437Z,36.50
2023-05-25T07:40:25.291Z,35.00
2023-05-25T07:42:52.307Z,34.60
2023-05-25T07:45:19.126Z,34.10
2023-05-25T07:47:45.956Z,33.40
2023-05-25T07:50:13.557Z,32.40
2023-05-25T07:52:40.477Z,31.70
2023-05-25T07:55:07.814Z,31.20
2023-05-25T07:57:34.801Z,31.20
2023-05-25T08:00:01.737Z,31.60
2023-05-25T08:02:28.678Z,32.50
2023-05-25T08:04:56.194Z,33.80
2023-05-25T08:07:24.984Z,34.40
2023-05-25T08:09:51.838Z,34.40
2023-05-25T08:14:48.370Z,35.40
2023-05-25T08:17:15.237Z,36.30
2023-05-25T08:19:42.098Z,37.20
2023-05-25T08:22:08.965Z,38.30
2023-05-25T08:24:35.847Z,38.80
2023-05-25T08:27:02.793Z,38.60
2023-05-25T08:29:29.720Z,38.00
2023-05-25T08:31:56.659Z,37.10
2023-05-25T08:34:23.550Z,36.30
2023-05-25T08:36:50.630Z,36.80
2023-05-25T08:39:18.834Z,37.30
2023-05-25T08:41:45.836Z,38.30
2023-05-25T08:44:14.593Z,39.30
2023-05-25T08:46:41.648Z,39.80
2023-05-25T08:49:12.738Z,40.00
2023-05-25T08:51:43.006Z,40.30
2023-05-25T08:54:12.262Z,40.40
2023-05-25T08:56:45.635Z,40.00
2023-05-25T08:59:35.211Z,40.20
2023-05-25T09:02:21.523Z,40.80
2023-05-25T09:04:48.439Z,40.70
2023-05-25T09:07:15.372Z,40.50
2023-05-25T09:09:42.398Z,40.40
2023-05-25T09:12:09.712Z,40.90
2023-05-25T09:14:37.927Z,41.20
2023-05-25T09:17:04.926Z,41.40
2023-05-25T09:19:31.818Z,41.70
2023-05-25T09:22:14.248Z,41.80
2023-05-25T09:24:44.447Z,41.80
2023-05-25T09:27:12.052Z,41.60
2023-05-25T09:29:38.967Z,40.70
2023-05-25T09:32:06.997Z,39.70
2023-05-25T09:34:36.894Z,39.00
2023-05-25T09:37:04.688Z,38.00
2023-05-25T09:39:31.889Z,37.40
2023-05-25T09:41:58.849Z,36.80
2023-05-25T09:44:25.690Z,35.90
2023-05-25T09:46:52.544Z,35.30
2023-05-25T09:49:20.000Z,34.30
2023-05-25T09:51:47.704Z,33.30
2023-05-25T09:54:14.653Z,32.70
2023-05-25T09:56:41.774Z,32.10
2023-05-25T09:59:08.600Z,31.50
2023-05-25T10:01:36.820Z,31.20
2023-05-25T10:04:05.205Z,31.10
2023-05-25T10:06:33.480Z,31.00
2023-05-25T10:09:00.728Z,31.10
2023-05-25T10:11:28.210Z,31.00
2023-05-25T10:13:56.041Z,30.80
2023-05-25T10:16:26.200Z,30.70
2023-05-25T10:19:25.491Z,30.70
2023-05-25T10:22:17.145Z,30.60
2023-05-25T10:24:58.180Z,30.50
2023-05-25T10:27:27.488Z,30.70
2023-05-25T10:29:58.745Z,30.50
2023-05-25T10:32:25.616Z,30.40
2023-05-25T10:34:52.792Z,30.40
2023-05-25T10:37:19.673Z,30.30
2023-05-25T10:39:46.576Z,30.30
2023-05-25T10:42:13.659Z,30.20
2023-05-25T10:44:41.946Z,30.00
2023-05-25T10:47:08.843Z,29.70
2023-05-25T10:49:51.160Z,29.50
2023-05-25T10:52:19.243Z,29.20
2023-05-25T10:54:47.456Z,28.50
2023-05-25T10:57:14.343Z,28.00
2023-05-25T10:59:42.047Z,27.60
2023-05-25T11:02:09.455Z,27.60
2023-05-25T11:04:39.537Z,27.60
2023-05-25T11:07:08.639Z,27.80
2023-05-25T11:09:38.835Z,27.90
2023-05-25T11:12:06.596Z,28.10
2023-05-25T11:14:34.105Z,28.40
2023-05-25T11:17:18.547Z,28.50
2023-05-25T11:19:53.937Z,28.60
2023-05-25T11:22:22.042Z,28.60
2023-05-25T11:24:52.540Z,28.80
2023-05-25T11:27:45.311Z,28.90
2023-05-25T11:30:12.999Z,28.70
2023-05-25T11:32:50.929Z,28.70
2023-05-25T11:35:17.922Z,28.70
2023-05-25T11:37:50.753Z,28.90
2023-05-25T11:40:17.632Z,28.80
2023-05-25T11:42:46.600Z,28.80
2023-05-25T11:45:14.793Z,28.90
2023-05-25T11:47:41.812Z,28.70
2023-05-25T11:50:15.490Z,28.40
2023-05-25T11:52:42.411Z,28.10
2023-05-25T11:55:14.390Z,28.10
2023-05-25T11:57:41.512Z,28.20
2023-05-25T12:00:11.363Z,28.10
2023-05-25T12:02:38.988Z,28.30
2023-05-25T12:05:08.558Z,28.40
2023-05-25T12:07:42.766Z,28.50
2023-05-25T12:10:13.132Z,28.50
2023-05-25T12:12:47.331Z,28.50
2023-05-25T12:15:17.593Z,28.50
2023-05-25T12:17:46.015Z,28.30
2023-05-25T12:20:13.704Z,28.00
2023-05-25T12:22:41.018Z,27.80
2023-05-25T12:25:09.009Z,27.60
2023-05-25T12:27:35.932Z,27.50
2023-05-25T12:30:03.383Z,27.50
2023-05-25T12:32:30.792Z,27.80
2023-05-25T12:35:07.217Z,28.20
2023-05-25T12:37:34.741Z,28.60
2023-05-25T12:40:01.628Z,28.80
2023-05-25T12:42:30.771Z,29.00
2023-05-25T12:44:58.047Z,29.00
2023-05-25T12:47:25.617Z,28.80
2023-05-25T12:50:13.701Z,28.70
2023-05-25T12:52:42.612Z,28.70
2023-05-25T12:55:26.167Z,28.70
2023-05-25T12:58:00.358Z,28.60
2023-05-25T13:00:37.695Z,28.50
2023-05-25T13:03:07.811Z,28.30
2023-05-25T13:05:37.006Z,28.10
2023-05-25T13:08:04.450Z,28.00
2023-05-25T13:10:32.937Z,28.00
2023-05-25T13:12:59.849Z,28.10
2023-05-25T13:15:27.157Z,28.30
2023-05-25T13:17:54.549Z,27.90
2023-05-25T13:20:22.686Z,27.80
2023-05-25T13:22:50.419Z,27.60
2023-05-25T13:25:17.255Z,27.40
2023-05-25T13:27:48.526Z,27.30
2023-05-25T13:30:15.900Z,26.90
2023-05-25T13:32:43.499Z,26.70
2023-05-25T13:35:18.371Z,26.80
2023-05-25T13:37:45.949Z,27.00
2023-05-25T13:40:13.572Z,27.10
2023-05-25T13:42:40.673Z,27.20
2023-05-25T13:45:08.372Z,27.40
2023-05-25T13:47:35.287Z,27.60
2023-05-25T13:50:02.154Z,27.70
2023-05-25T13:52:29.017Z,27.80
2023-05-25T13:54:55.911Z,27.90
2023-05-25T13:57:22.763Z,28.00
2023-05-25T13:59:49.652Z,28.00
2023-05-25T14:02:16.654Z,28.10
2023-05-25T14:04:43.561Z,28.20
2023-05-25T14:07:10.990Z,28.30
2023-05-25T14:09:37.940Z,28.20
2023-05-25T14:12:05.111Z,28.10
2023-05-25T14:14:33.023Z,28.20
2023-05-25T14:17:01.285Z,28.20
2023-05-25T14:19:28.452Z,28.20
2023-05-25T14:24:25.111Z,28.30
2023-05-25T14:26:51.993Z,28.30
2023-05-25T14:29:18.843Z,28.30
2023-05-25T14:31:46.588Z,28.00
2023-05-25T14:34:13.486Z,27.90
2023-05-25T14:36:40.365Z,27.70
2023-05-25T14:39:07.146Z,27.50
2023-05-25T14:41:33.938Z,27.30
2023-05-25T14:44:00.739Z,27.20
2023-05-25T14:46:27.626Z,27.30
2023-05-25T14:48:54.439Z,27.20
2023-05-25T14:51:21.208Z,27.00
2023-05-25T14:53:47.972Z,27.00
2023-05-25T14:56:14.800Z,26.90
2023-05-25T14:58:41.701Z,26.90
2023-05-25T15:01:08.611Z,27.00
2023-05-25T15:03:35.870Z,27.10
2023-05-25T15:06:02.905Z,27.30
2023-05-25T15:08:29.793Z,27.40
2023-05-25T15:10:56.841Z,27.50
2023-05-25T15:13:23.728Z,27.50
2023-05-25T15:15:54.583Z,27.60
2023-05-25T15:18:21.667Z,27.60
2023-05-25T15:20:48.599Z,27.60
2023-05-25T15:23:15.584Z,27.60
2023-05-25T15:25:42.574Z,27.60
2023-05-25T15:28:09.366Z,27.60
2023-05-25T15:30:36.419Z,27.60
2023-05-25T15:33:03.527Z,27.60
2023-05-25T15:35:33.419Z,27.60
2023-05-25T15:38:00.383Z,27.50
2023-05-25T15:40:27.584Z,27.40
2023-05-25T15:42:54.583Z,27.40
2023-05-25T15:45:21.461Z,27.40
2023-05-25T15:47:48.532Z,27.40
2023-05-25T15:50:16.054Z,27.30
2023-05-25T15:52:43.071Z,27.40
2023-05-25T15:55:10.048Z,27.30
2023-05-25T15:57:36.820Z,27.40
2023-05-25T16:00:05.598Z,27.40
2023-05-25T16:02:32.774Z,27.30
2023-05-25T16:04:59.534Z,27.30
2023-05-25T16:07:26.564Z,27.20
2023-05-25T16:09:53.561Z,27.20
2023-05-25T16:12:24.705Z,27.00
2023-05-25T16:14:52.467Z,27.00
2023-05-25T16:17:19.304Z,26.90
2023-05-25T16:19:48.247Z,26.90
2023-05-25T16:22:15.078Z,26.90
2023-05-25T16:24:41.933Z,26.80
2023-05-25T16:27:08.807Z,26.70
2023-05-25T16:29:35.764Z,26.70
2023-05-25T16:32:02.711Z,26.70
2023-05-25T16:34:29.594Z,26.60
2023-05-25T16:36:56.430Z,26.70
2023-05-25T16:39:23.491Z,26.70
2023-05-25T16:41:51.059Z,26.60
2023-05-25T16:44:18.060Z,26.60
2023-05-25T16:46:44.940Z,26.60
2023-05-25T16:49:11.910Z,26.40
2023-05-25T16:51:38.773Z,26.40
2023-05-25T16:54:05.750Z,26.30
2023-05-25T16:56:32.563Z,26.20
2023-05-25T16:58:59.390Z,26.10
2023-05-25T17:01:26.273Z,26.00
2023-05-25T17:03:53.230Z,25.90
2023-05-25T17:06:20.141Z,25.80
2023-05-25T17:08:47.211Z,25.70
2023-05-25T17:11:14.004Z,25.70
2023-05-25T17:13:41.401Z,25.60
2023-05-25T17:16:08.470Z,25.60
2023-05-25T17:18:35.369Z,25.60
2023-05-25T17:21:02.285Z,25.50
2023-05-25T17:23:29.190Z,25.50
2023-05-25T17:25:55.955Z,25.50
2023-05-25T17:28:22.778Z,25.50
2023-05-25T17:30:49.629Z,25.50
2023-05-25T17:33:16.471Z,25.40
2023-05-25T17:35:43.576Z,25.40
2023-05-25T17:38:10.847Z,25.30
2023-05-25T17:40:37.697Z,25.20
2023-05-25T17:43:04.519Z,25.20
2023-05-25T17:45:31.350Z,25.10
2023-05-25T17:47:58.860Z,25.10
2023-05-25T17:50:25.711Z,25.00
2023-05-25T17:52:52.683Z,24.90
2023-05-25T17:55:20.759Z,24.80
2023-05-25T17:57:47.629Z,24.70
2023-05-25T18:00:15.354Z,24.70
2023-05-25T18:02:42.350Z,24.60
2023-05-25T18:05:09.415Z,24.50
2023-05-25T18:07:36.199Z,24.50
2023-05-25T18:10:03.846Z,24.40
2023-05-25T18:12:30.799Z,24.40
2023-05-25T18:14:57.665Z,24.40
2023-05-25T18:17:24.573Z,24.30
2023-05-25T18:19:51.493Z,24.30
2023-05-25T18:22:18.616Z,24.10
2023-05-25T18:24:45.405Z,24.00
2023-05-25T18:27:12.337Z,23.90
2023-05-25T18:29:39.618Z,23.70
2023-05-25T18:32:06.777Z,23.60
2023-05-25T18:34:34.085Z,23.40
2023-05-25T18:37:00.936Z,23.20
2023-05-25T18:39:27.852Z,23.10
2023-05-25T18:41:54.849Z,23.00
2023-05-25T18:44:21.767Z,22.90
2023-05-25T18:46:51.612Z,22.90
2023-05-25T18:49:18.960Z,22.80
2023-05-25T18:51:45.973Z,22.70
2023-05-25T18:54:12.796Z,22.60
2023-05-25T18:56:39.571Z,22.60
2023-05-25T18:59:06.494Z,22.50
2023-05-25T19:01:33.421Z,22.40
2023-05-25T19:04:00.472Z,22.30
2023-05-25T19:06:27.388Z,22.30
2023-05-25T19:08:55.358Z,22.20
2023-05-25T19:11:22.418Z,22.10
2023-05-25T19:13:49.269Z,21.90
2023-05-25T19:16:16.163Z,21.70
2023-05-25T19:18:42.973Z,21.60
2023-05-25T19:21:09.874Z,21.40
2023-05-25T19:23:36.763Z,21.40
2023-05-25T19:26:03.565Z,21.30
2023-05-25T19:28:30.561Z,21.20
2023-05-25T19:30:57.406Z,21.10
2023-05-25T19:33:24.297Z,20.90
2023-05-25T19:35:51.432Z,20.90
2023-05-25T19:38:18.455Z,20.80
2023-05-25T19:40:45.753Z,20.80
2023-05-25T19:43:12.632Z,20.70
2023-05-25T19:45:39.475Z,20.60
2023-05-25T19:48:06.381Z,20.60
2023-05-25T19:50:33.335Z,20.50
2023-05-25T19:53:00.297Z,20.50
2023-05-25T19:55:27.393Z,20.40
2023-05-25T19:57:54.213Z,20.40
2023-05-25T20:00:26.524Z,20.40
2023-05-25T20:02:54.249Z,20.50
2023-05-25T20:05:21.268Z,20.50
2023-05-25T20:07:48.185Z,20.40
2023-05-25T20:10:15.057Z,20.30
2023-05-25T20:12:41.928Z,20.30
2023-05-25T20:15:09.037Z,20.20
2023-05-25T20:17:36.065Z,20.20
2023-05-25T20:20:05.150Z,20.20
2023-05-25T20:22:33.098Z,20.10
2023-05-25T20:25:00.959Z,20.00
2023-05-25T20:27:27.967Z,19.90
2023-05-25T20:29:55.002Z,19.90
2023-05-25T20:32:22.058Z,19.90
2023-05-25T20:34:48.915Z,19.90
2023-05-25T20:37:15.904Z,19.80
2023-05-25T20:39:42.797Z,19.70
2023-05-25T20:42:10.280Z,19.60
2023-05-25T20:44:37.266Z,19.40
2023-05-25T20:47:04.575Z,19.30
2023-05-25T20:49:31.388Z,19.20
2023-05-25T20:51:58.236Z,19.20
2023-05-25T20:54:25.101Z,19.20
2023-05-25T20:56:52.085Z,19.20
2023-05-25T20:59:18.931Z,19.20
2023-05-25T21:01:46.111Z,19.10
2023-05-25T21:04:13.006Z,18.90
2023-05-25T21:06:40.099Z,18.90
2023-05-25T21:09:07.000Z,18.90
2023-05-25T21:11:33.797Z,18.80
2023-05-25T21:14:00.809Z,18.80
2023-05-25T21:16:27.658Z,18.80
2023-05-25T21:18:54.540Z,18.90
2023-05-25T21:21:21.301Z,18.90
2023-05-25T21:23:48.122Z,18.90
2023-05-25T21:26:14.914Z,18.80
2023-05-25T21:28:41.734Z,18.70
2023-05-25T21:31:08.655Z,18.70
2023-05-25T21:33:36.625Z,18.60
2023-05-25T21:36:03.881Z,18.50
2023-05-25T21:38:30.912Z,18.50
2023-05-25T21:40:58.732Z,18.50
2023-05-25T21:43:28.544Z,18.50
2023-05-25T21:45:55.439Z,18.50
2023-05-25T21:48:22.372Z,18.50
2023-05-25T21:50:52.479Z,18.50
2023-05-25T21:53:22.382Z,18.60
2023-05-25T21:55:49.519Z,18.50
2023-05-25T21:58:17.622Z,18.50
2023-05-25T22:00:44.750Z,18.50
2023-05-25T22:03:11.800Z,18.40
2023-05-25T22:05:38.819Z,18.30
2023-05-25T22:08:06.071Z,18.30
2023-05-25T22:10:32.937Z,18.30
2023-05-25T22:12:59.751Z,18.20
2023-05-25T22:15:26.603Z,18.10
2023-05-25T22:17:53.392Z,18.10
2023-05-25T22:20:20.322Z,18.10
2023-05-25T22:22:47.218Z,18.00
2023-05-25T22:25:14.487Z,18.00
2023-05-25T22:27:41.358Z,17.90
2023-05-25T22:30:08.772Z,17.80
2023-05-25T22:32:35.750Z,17.80
2023-05-25T22:35:02.893Z,17.80
2023-05-25T22:37:29.725Z,17.80
2023-05-25T22:39:57.395Z,17.90
2023-05-25T22:42:24.349Z,17.80
2023-05-25T22:44:51.458Z,17.80
2023-05-25T22:47:18.353Z,17.70
2023-05-25T22:49:45.357Z,17.70
2023-05-25T22:52:12.364Z,17.70
2023-05-25T22:54:39.323Z,17.70
2023-05-25T22:57:06.765Z,17.70
2023-05-25T22:59:33.726Z,17.70
2023-05-25T23:02:00.783Z,17.70
2023-05-25T23:04:27.718Z,17.70
2023-05-25T23:06:54.678Z,17.70
2023-05-25T23:09:21.524Z,17.60
2023-05-25T23:11:48.379Z,17.60
2023-05-25T23:14:15.305Z,17.60
2023-05-25T23:16:42.267Z,17.60
2023-05-25T23:19:09.196Z,17.60
2023-05-25T23:21:36.073Z,17.60
2023-05-25T23:24:02.942Z,17.70
2023-05-25T23:26:29.831Z,17.70
2023-05-25T23:28:56.689Z,17.70
2023-05-25T23:31:23.692Z,17.60
2023-05-25T23:33:50.569Z,17.60
2023-05-25T23:36:17.452Z,17.60
2023-05-25T23:38:45.155Z,17.70
2023-05-25T23:41:11.926Z,17.60
2023-05-25T23:43:38.946Z,17.50
2023-05-25T23:46:06.006Z,17.50
2023-05-25T23:48:32.884Z,17.60
2023-05-25T23:50:59.863Z,17.70
2023-05-25T23:53:26.874Z,17.70
2023-05-25T23:55:53.685Z,17.60
2023-05-25T23:58:20.598Z,17.50
